createdAt,value
2023-02-08T00:02:44.939Z,-2.65
2023-02-08T00:05:47.549Z,-2.67
2023-02-08T00:08:48.936Z,-2.74
2023-02-08T00:11:51.447Z,-2.79
2023-02-08T00:14:53.344Z,-2.80
2023-02-08T00:17:55.982Z,-2.80
2023-02-08T00:20:58.641Z,-2.78
2023-02-08T00:24:01.226Z,-2.81
2023-02-08T00:27:02.475Z,-2.79
2023-02-08T00:30:06.645Z,-2.76
2023-02-08T00:33:08.620Z,-2.84
2023-02-08T00:36:12.878Z,-2.87
2023-02-08T00:39:14.557Z,-2.91
2023-02-08T00:42:17.235Z,-2.99
2023-02-08T00:45:21.063Z,-2.99
2023-02-08T00:48:23.105Z,-2.94
2023-02-08T00:51:25.772Z,-2.95
2023-02-08T00:54:27.143Z,-3.01
2023-02-08T00:57:29.681Z,-3.02
2023-02-08T01:00:31.649Z,-3.01
2023-02-08T01:03:35.157Z,-3.03
2023-02-08T01:06:37.893Z,-3.04
2023-02-08T01:09:39.245Z,-3.14
2023-02-08T01:12:41.854Z,-3.17
2023-02-08T01:15:45.334Z,-3.15
2023-02-08T01:18:48.352Z,-3.16
2023-02-08T01:21:51.091Z,-3.20
2023-02-08T01:24:52.594Z,-3.24
2023-02-08T01:27:57.697Z,-3.34
2023-02-08T01:31:06.991Z,-3.32
2023-02-08T01:34:09.113Z,-3.34
2023-02-08T01:40:31.199Z,-3.35
2023-02-08T01:43:34.711Z,-3.39
2023-02-08T01:46:39.344Z,-3.39
2023-02-08T01:49:40.680Z,-3.41
2023-02-08T01:52:44.772Z,-3.39
2023-02-08T01:55:49.022Z,-3.38
2023-02-08T01:58:55.336Z,-3.46
2023-02-08T02:02:00.038Z,-3.52
2023-02-08T02:05:01.590Z,-3.57
2023-02-08T02:08:04.577Z,-3.56
2023-02-08T02:11:06.009Z,-3.60
2023-02-08T02:14:10.486Z,-3.60
2023-02-08T02:20:48.377Z,-3.59
2023-02-08T02:24:11.909Z,-3.58
2023-02-08T02:27:41.579Z,-3.56
2023-02-08T02:31:15.431Z,-3.57
2023-02-08T02:34:27.062Z,-3.59
2023-02-08T02:37:40.767Z,-3.56
2023-02-08T02:40:50.625Z,-3.58
2023-02-08T02:43:59.197Z,-3.62
2023-02-08T02:47:08.473Z,-3.62
2023-02-08T02:50:20.233Z,-3.63
2023-02-08T02:53:28.313Z,-3.63
2023-02-08T02:59:54.917Z,-3.64
2023-02-08T03:02:59.195Z,-3.64
2023-02-08T03:06:04.726Z,-3.68
2023-02-08T03:09:31.866Z,-3.64
2023-02-08T03:12:46.528Z,-3.62
2023-02-08T03:16:00.574Z,-3.63
2023-02-08T03:19:08.659Z,-3.62
2023-02-08T03:22:17.814Z,-3.60
2023-02-08T03:25:23.242Z,-3.60
2023-02-08T03:28:29.760Z,-3.60
2023-02-08T03:31:37.338Z,-3.68
2023-02-08T03:34:46.896Z,-3.67
2023-02-08T03:37:54.591Z,-3.66
2023-02-08T03:41:00.818Z,-3.65
2023-02-08T03:44:10.064Z,-3.60
2023-02-08T03:47:15.830Z,-3.59
2023-02-08T03:50:21.298Z,-3.63
2023-02-08T03:53:25.819Z,-3.62
2023-02-08T03:56:35.974Z,-3.64
2023-02-08T03:59:40.497Z,-3.67
2023-02-08T04:02:53.034Z,-3.67
2023-02-08T04:05:54.802Z,-3.65
2023-02-08T04:08:56.762Z,-3.67
2023-02-08T04:11:58.336Z,-3.71
2023-02-08T04:15:00.844Z,-3.71
2023-02-08T04:18:02.114Z,-3.72
2023-02-08T04:21:05.027Z,-3.71
2023-02-08T04:24:07.371Z,-3.72
2023-02-08T04:27:08.622Z,-3.68
2023-02-08T04:30:11.177Z,-3.71
2023-02-08T04:33:14.146Z,-3.75
2023-02-08T04:36:15.612Z,-3.72
2023-02-08T04:39:17.524Z,-3.55
2023-02-08T04:42:20.054Z,-3.65
2023-02-08T04:45:21.288Z,-3.69
2023-02-08T04:48:23.835Z,-3.72
2023-02-08T04:51:26.390Z,-3.75
2023-02-08T04:54:28.383Z,-3.75
2023-02-08T04:57:30.965Z,-3.75
2023-02-08T05:00:32.225Z,-3.77
2023-02-08T05:03:34.909Z,-3.77
2023-02-08T05:06:36.557Z,-3.77
2023-02-08T05:09:39.824Z,-3.78
2023-02-08T05:12:41.140Z,-3.82
2023-02-08T05:15:43.876Z,-3.81
2023-02-08T05:18:46.547Z,-3.82
2023-02-08T05:21:49.101Z,-3.80
2023-02-08T05:24:51.025Z,-3.75
2023-02-08T05:27:53.319Z,-3.78
2023-02-08T05:30:54.698Z,-3.77
2023-02-08T05:33:57.369Z,-3.76
2023-02-08T05:36:59.940Z,-3.77
2023-02-08T05:40:01.871Z,-3.82
2023-02-08T05:46:25.740Z,-3.83
2023-02-08T05:49:28.420Z,-3.82
2023-02-08T05:52:29.676Z,-3.81
2023-02-08T05:55:31.668Z,-3.82
2023-02-08T06:01:55.376Z,-3.93
2023-02-08T06:04:57.921Z,-3.88
2023-02-08T06:08:00.503Z,-3.88
2023-02-08T06:11:06.281Z,-3.83
2023-02-08T06:14:07.616Z,-3.78
2023-02-08T06:17:08.961Z,-3.75
2023-02-08T06:20:12.340Z,-3.75
2023-02-08T06:23:13.706Z,-3.79
2023-02-08T06:26:15.687Z,-3.78
2023-02-08T06:29:16.996Z,-3.78
2023-02-08T06:32:18.391Z,-3.72
2023-02-08T06:35:21.107Z,-3.67
2023-02-08T06:38:23.792Z,-3.63
2023-02-08T06:41:26.468Z,-3.63
2023-02-08T06:44:29.063Z,-3.63
2023-02-08T06:47:30.495Z,-3.57
2023-02-08T06:50:33.679Z,-3.57
2023-02-08T06:53:36.197Z,-3.50
2023-02-08T06:56:38.230Z,-3.42
2023-02-08T06:59:41.584Z,-3.42
2023-02-08T07:02:42.967Z,-3.39
2023-02-08T07:06:02.507Z,-3.38
2023-02-08T07:09:06.868Z,-3.22
2023-02-08T07:12:09.391Z,-3.16
2023-02-08T07:15:12.504Z,-3.12
2023-02-08T07:18:13.770Z,-3.06
2023-02-08T07:21:15.983Z,-2.80
2023-02-08T07:24:18.556Z,-2.77
2023-02-08T07:27:20.498Z,-2.64
2023-02-08T07:30:23.292Z,-2.54
2023-02-08T07:33:25.376Z,-2.53
2023-02-08T07:36:27.899Z,-2.31
2023-02-08T07:39:30.557Z,-1.73
2023-02-08T07:42:34.314Z,-1.28
2023-02-08T07:45:37.190Z,-1.11
2023-02-08T07:52:02.543Z,-1.00
2023-02-08T07:58:26.186Z,-1.06
2023-02-08T08:01:27.534Z,-1.19
2023-02-08T08:04:28.861Z,-1.13
2023-02-08T08:07:30.229Z,-1.17
2023-02-08T08:10:31.862Z,-1.01
2023-02-08T08:13:33.837Z,-0.91
2023-02-08T08:16:36.388Z,-0.90
2023-02-08T08:19:38.315Z,-0.70
2023-02-08T08:22:40.841Z,-0.67
2023-02-08T08:25:42.174Z,-0.71
2023-02-08T08:28:45.835Z,-0.57
2023-02-08T08:31:47.298Z,-0.57
2023-02-08T08:34:49.003Z,-0.42
2023-02-08T08:37:50.293Z,-0.60
2023-02-08T08:40:52.834Z,-0.36
2023-02-08T08:43:54.792Z,-0.35
2023-02-08T08:46:58.337Z,-0.46
2023-02-08T08:49:59.696Z,-0.36
2023-02-08T08:53:02.254Z,-0.16
2023-02-08T08:56:05.810Z,-0.22
2023-02-08T08:59:07.834Z,-0.14
2023-02-08T09:02:13.087Z,-0.01
2023-02-08T09:05:14.416Z,0.06
2023-02-08T09:08:16.914Z,0.01
2023-02-08T09:11:18.174Z,0.23
2023-02-08T09:14:20.194Z,0.35
2023-02-08T09:17:22.902Z,0.49
2023-02-08T09:20:24.335Z,0.40
2023-02-08T09:23:27.020Z,0.45
2023-02-08T09:26:28.328Z,0.58
2023-02-08T09:29:33.280Z,0.76
2023-02-08T09:32:34.714Z,0.73
2023-02-08T09:35:37.294Z,0.82
2023-02-08T09:38:40.550Z,0.88
2023-02-08T09:42:14.791Z,0.92
2023-02-08T09:45:38.599Z,0.88
2023-02-08T09:48:42.774Z,1.02
2023-02-08T09:51:51.023Z,1.10
2023-02-08T09:54:58.601Z,1.21
2023-02-08T09:58:05.615Z,1.22
2023-02-08T10:01:17.932Z,1.62
2023-02-08T10:04:30.094Z,1.80
2023-02-08T10:07:34.115Z,2.01
2023-02-08T10:10:48.332Z,2.21
2023-02-08T10:14:11.286Z,2.76
2023-02-08T10:17:43.505Z,2.60
2023-02-08T10:20:56.986Z,3.15
2023-02-08T10:24:16.156Z,3.51
2023-02-08T10:27:23.627Z,3.72
2023-02-08T10:30:32.884Z,4.01
2023-02-08T10:33:44.793Z,4.58
2023-02-08T10:36:46.414Z,4.89
2023-02-08T10:39:51.198Z,5.02
2023-02-08T10:43:00.433Z,4.71
2023-02-08T10:46:13.004Z,5.08
2023-02-08T10:49:22.679Z,5.05
2023-02-08T10:52:24.068Z,5.21
2023-02-08T10:55:26.854Z,5.55
2023-02-08T10:58:28.223Z,6.05
2023-02-08T11:01:29.827Z,6.21
2023-02-08T11:04:31.909Z,5.97
2023-02-08T11:07:36.496Z,5.85
2023-02-08T11:10:39.611Z,5.85
2023-02-08T11:13:44.417Z,6.06
2023-02-08T11:16:49.792Z,5.94
2023-02-08T11:19:52.446Z,6.20
2023-02-08T11:22:54.261Z,6.58
2023-02-08T11:26:14.613Z,6.39
2023-02-08T11:29:18.956Z,6.28
2023-02-08T11:32:21.395Z,6.54
2023-02-08T11:35:26.297Z,6.62
2023-02-08T11:38:29.618Z,6.69
2023-02-08T11:41:31.133Z,6.70
2023-02-08T11:44:36.768Z,6.71
2023-02-08T11:47:39.237Z,6.16
2023-02-08T11:50:41.669Z,6.07
2023-02-08T11:53:48.619Z,6.38
2023-02-08T11:57:01.530Z,6.33
2023-02-08T12:00:18.640Z,6.37
2023-02-08T12:03:26.313Z,6.07
2023-02-08T12:06:51.070Z,6.15
2023-02-08T12:10:46.582Z,6.68
2023-02-08T12:14:12.512Z,6.69
2023-02-08T12:17:35.733Z,6.11
2023-02-08T12:20:40.025Z,5.63
2023-02-08T12:23:48.829Z,6.01
2023-02-08T12:27:08.121Z,5.78
2023-02-08T12:30:20.963Z,5.50
2023-02-08T12:33:35.929Z,5.56
2023-02-08T12:37:16.093Z,5.48
2023-02-08T12:40:49.104Z,5.48
2023-02-08T12:44:02.683Z,5.35
2023-02-08T12:47:18.045Z,5.04
2023-02-08T12:50:27.760Z,5.06
2023-02-08T12:53:34.363Z,4.88
2023-02-08T12:56:43.560Z,5.00
2023-02-08T12:59:49.619Z,5.14
2023-02-08T13:02:58.978Z,5.01
2023-02-08T13:06:04.132Z,4.72
2023-02-08T13:09:16.008Z,4.50
2023-02-08T13:12:25.337Z,4.46
2023-02-08T13:15:36.065Z,4.38
2023-02-08T13:18:43.305Z,4.55
2023-02-08T13:21:46.528Z,4.13
2023-02-08T13:25:05.072Z,3.93
2023-02-08T13:28:19.147Z,3.75
2023-02-08T13:31:24.476Z,3.92
2023-02-08T13:34:30.868Z,3.86
2023-02-08T13:37:35.739Z,3.78
2023-02-08T13:40:38.113Z,3.86
2023-02-08T13:43:44.834Z,3.84
2023-02-08T13:46:48.395Z,3.88
2023-02-08T13:50:00.045Z,3.76
2023-02-08T13:53:03.143Z,3.65
2023-02-08T13:56:05.481Z,3.73
2023-02-08T13:59:34.287Z,3.85
2023-02-08T14:02:36.712Z,3.81
2023-02-08T14:05:48.366Z,3.70
2023-02-08T14:08:57.604Z,3.62
2023-02-08T14:12:05.368Z,3.51
2023-02-08T14:15:35.362Z,3.67
2023-02-08T14:18:38.221Z,3.55
2023-02-08T14:21:44.167Z,3.62
2023-02-08T14:24:49.813Z,3.51
2023-02-08T14:27:53.609Z,3.47
2023-02-08T14:34:29.863Z,3.54
2023-02-08T14:37:34.120Z,3.53
2023-02-08T14:40:49.011Z,3.35
2023-02-08T14:43:51.346Z,3.33
2023-02-08T14:46:54.067Z,3.19
2023-02-08T14:50:06.162Z,3.24
2023-02-08T14:53:24.434Z,3.32
2023-02-08T14:56:29.730Z,3.31
2023-02-08T14:59:34.220Z,3.14
2023-02-08T15:02:43.776Z,3.15
2023-02-08T15:06:02.939Z,3.10
2023-02-08T15:09:05.980Z,3.03
2023-02-08T15:12:16.327Z,2.95
2023-02-08T15:15:26.674Z,2.95
2023-02-08T15:18:31.639Z,2.92
2023-02-08T15:21:36.963Z,2.90
2023-02-08T15:24:48.810Z,2.83
2023-02-08T15:27:52.847Z,2.96
2023-02-08T15:30:57.819Z,2.80
2023-02-08T15:34:01.607Z,2.69
2023-02-08T15:37:07.093Z,2.58
2023-02-08T15:40:23.005Z,2.56
2023-02-08T15:43:24.262Z,2.58
2023-02-08T15:46:27.976Z,2.63
2023-02-08T15:49:35.307Z,2.40
2023-02-08T15:52:38.404Z,2.55
2023-02-08T15:55:48.144Z,2.44
2023-02-08T15:58:53.426Z,2.39
2023-02-08T16:01:58.341Z,2.21
2023-02-08T16:05:02.652Z,2.29
2023-02-08T16:08:04.771Z,2.23
2023-02-08T16:11:11.225Z,2.14
2023-02-08T16:14:15.454Z,2.04
2023-02-08T16:17:36.357Z,2.07
2023-02-08T16:20:38.363Z,2.06
2023-02-08T16:23:40.795Z,1.92
2023-02-08T16:26:45.562Z,1.87
2023-02-08T16:29:47.635Z,1.87
2023-02-08T16:32:50.340Z,1.85
2023-02-08T16:35:53.237Z,1.87
2023-02-08T16:39:22.678Z,1.85
2023-02-08T16:42:30.312Z,1.75
2023-02-08T16:45:31.629Z,1.72
2023-02-08T16:48:36.417Z,1.55
2023-02-08T16:51:42.503Z,1.69
2023-02-08T16:54:44.983Z,1.60
2023-02-08T16:57:48.260Z,1.46
2023-02-08T17:00:50.942Z,1.83
2023-02-08T17:03:53.487Z,1.59
2023-02-08T17:06:55.618Z,1.54
2023-02-08T17:09:57.986Z,1.46
2023-02-08T17:13:19.809Z,1.49
2023-02-08T17:16:25.221Z,1.51
2023-02-08T17:19:27.582Z,1.57
2023-02-08T17:22:29.558Z,1.42
2023-02-08T17:25:33.601Z,1.38
2023-02-08T17:28:37.753Z,1.38
2023-02-08T17:31:40.651Z,1.32
2023-02-08T17:34:42.251Z,1.33
2023-02-08T17:37:44.938Z,1.27
2023-02-08T17:40:48.149Z,1.38
2023-02-08T17:43:50.539Z,1.27
2023-02-08T17:46:52.879Z,1.24
2023-02-08T17:49:55.286Z,1.26
2023-02-08T17:52:57.233Z,1.32
2023-02-08T17:55:59.592Z,1.39
2023-02-08T17:59:03.151Z,1.16
2023-02-08T18:02:05.599Z,1.25
2023-02-08T18:05:08.147Z,1.37
2023-02-08T18:08:11.126Z,1.20
2023-02-08T18:11:18.283Z,1.11
2023-02-08T18:14:20.042Z,1.09
2023-02-08T18:17:22.417Z,1.01
2023-02-08T18:20:24.831Z,0.99
2023-02-08T18:23:27.295Z,1.00
2023-02-08T18:26:31.095Z,0.97
2023-02-08T18:29:32.686Z,0.91
2023-02-08T18:32:35.098Z,0.89
2023-02-08T18:35:38.127Z,1.02
2023-02-08T18:38:45.822Z,1.05
2023-02-08T18:41:48.385Z,0.90
2023-02-08T18:44:49.807Z,1.01
2023-02-08T18:47:52.380Z,1.01
2023-02-08T18:50:56.113Z,0.88
2023-02-08T18:53:58.416Z,0.86
2023-02-08T18:57:01.395Z,0.82
2023-02-08T19:00:03.252Z,0.84
2023-02-08T19:03:05.953Z,0.83
2023-02-08T19:06:12.206Z,0.94
2023-02-08T19:09:15.386Z,0.76
2023-02-08T19:15:40.479Z,0.92
2023-02-08T19:18:42.893Z,0.94
2023-02-08T19:21:44.218Z,0.86
2023-02-08T19:24:47.254Z,0.73
2023-02-08T19:27:50.376Z,0.75
2023-02-08T19:31:02.146Z,0.69
2023-02-08T19:34:05.901Z,0.66
2023-02-08T19:37:08.312Z,0.51
2023-02-08T19:40:11.968Z,0.53
2023-02-08T19:43:14.441Z,0.57
2023-02-08T19:46:18.758Z,0.48
2023-02-08T19:49:23.023Z,0.56
2023-02-08T19:52:25.498Z,0.42
2023-02-08T19:55:27.420Z,0.37
2023-02-08T19:58:31.117Z,0.31
2023-02-08T20:01:34.604Z,0.46
2023-02-08T20:04:37.082Z,0.40
2023-02-08T20:07:38.405Z,0.32
2023-02-08T20:10:43.130Z,0.37
2023-02-08T20:13:45.590Z,0.28
2023-02-08T20:16:48.119Z,0.34
2023-02-08T20:19:49.502Z,0.36
2023-02-08T20:22:51.933Z,0.28
2023-02-08T20:26:04.740Z,0.24
2023-02-08T20:29:09.013Z,0.32
2023-02-08T20:32:10.352Z,0.38
2023-02-08T20:35:12.842Z,0.22
2023-02-08T20:38:14.188Z,0.34
2023-02-08T20:41:17.702Z,0.27
2023-02-08T20:44:20.187Z,0.32
2023-02-08T20:47:21.489Z,0.33
2023-02-08T20:50:23.946Z,0.10
2023-02-08T20:53:25.210Z,0.01
2023-02-08T20:56:30.307Z,0.00
2023-02-08T20:59:32.745Z,0.09
2023-02-08T21:02:35.197Z,0.24
2023-02-08T21:05:37.658Z,-0.01
2023-02-08T21:08:38.977Z,-0.07
2023-02-08T21:11:43.235Z,-0.11
2023-02-08T21:14:44.564Z,-0.04
2023-02-08T21:17:47.025Z,-0.05
2023-02-08T21:20:50.723Z,-0.10
2023-02-08T21:23:52.129Z,0.00
2023-02-08T21:26:56.963Z,-0.05
2023-02-08T21:29:58.254Z,-0.03
2023-02-08T21:33:00.655Z,0.05
2023-02-08T21:36:03.863Z,0.05
2023-02-08T21:39:05.186Z,0.08
2023-02-08T21:42:08.240Z,0.07
2023-02-08T21:45:09.947Z,-0.04
2023-02-08T21:48:12.458Z,-0.13
2023-02-08T21:51:33.159Z,-0.23
2023-02-08T21:54:41.189Z,-0.16
2023-02-08T22:01:06.277Z,-0.23
2023-02-08T22:04:08.691Z,-0.24
2023-02-08T22:07:11.097Z,-0.18
2023-02-08T22:10:13.972Z,-0.24
2023-02-08T22:13:17.085Z,-0.20
2023-02-08T22:16:18.512Z,-0.28
2023-02-08T22:19:21.242Z,-0.31
2023-02-08T22:22:23.743Z,-0.31
2023-02-08T22:25:25.094Z,-0.23
2023-02-08T22:28:28.441Z,-0.23
2023-02-08T22:31:31.076Z,-0.16
2023-02-08T22:34:33.665Z,-0.16
2023-02-08T22:37:35.552Z,-0.20
2023-02-08T22:40:38.071Z,-0.32
2023-02-08T22:43:40.082Z,-0.36
2023-02-08T22:46:42.687Z,-0.41
2023-02-08T22:49:45.172Z,-0.11
2023-02-08T22:52:47.654Z,-0.31
2023-02-08T22:55:49.646Z,-0.30
2023-02-08T22:58:52.738Z,-0.47
2023-02-08T23:01:54.131Z,-0.37
2023-02-08T23:04:56.684Z,-0.47
2023-02-08T23:07:58.017Z,-0.46
2023-02-08T23:11:01.495Z,-0.47
2023-02-08T23:14:03.433Z,-0.44
2023-02-08T23:17:05.879Z,-0.54
2023-02-08T23:20:09.113Z,-0.61
2023-02-08T23:23:10.470Z,-0.68
2023-02-08T23:26:13.756Z,-0.69
2023-02-08T23:29:16.856Z,-0.44
2023-02-08T23:32:18.188Z,-0.52
2023-02-08T23:35:20.718Z,-0.64
2023-02-08T23:38:22.325Z,-0.65
2023-02-08T23:41:25.306Z,-0.71
2023-02-08T23:44:28.583Z,-0.69
2023-02-08T23:47:30.098Z,-0.74
2023-02-08T23:50:32.591Z,-0.65
2023-02-08T23:53:35.129Z,-0.78
2023-02-08T23:56:36.474Z,-0.58
2023-02-08T23:59:40.215Z,-0.75
